Time;durP1;ratioP1;P1;durP2;ratioP2;P2;SDS_P1;SDS_P2;PMS_P1;PMS_P2;Temp;Humidity;BMP_temperature;BMP_pressure;BME280_temperature;BME280_humidity;BME280_pressure;Samples;Min_cycle;Max_cycle;Signal;HPM_P1;HPM_P2
2023/02/20 08:49:12;;;;;;;5.57;3.23;;;;;;;15.39;55.76;99833.09;5150935;27;20571;-88
2023/02/20 08:54:53;;;;;;;3.50;2.80;;;;;;;18.52;49.04;99895.88;5131885;27;41080;-86
2023/02/20 09:11:16;;;;;;;5.30;2.50;;;;;;;17.28;49.05;99868.78;5092443;27;41642;-85
2023/02/20 09:13:45;;;;;;;5.63;2.97;;;;;;;17.49;48.61;99880.56;5094219;27;41259;-81
2023/02/20 09:19:30;;;;;;;5.57;2.83;;;;;;;18.46;45.52;99874.88;5110858;27;42045;-87
2023/02/20 09:21:59;;;;;;;5.23;2.80;;;;;;;18.97;45.33;99907.47;5094317;27;43113;-83
2023/02/20 09:31:03;;;;;;;4.87;2.77;;;;;;;18.14;45.83;99866.69;5140518;27;41919;-80
2023/02/20 09:33:30;;;;;;;4.47;2.63;;;;;;;17.37;47.09;99856.50;5131803;27;42730;-84
2023/02/20 09:35:58;;;;;;;4.77;2.57;;;;;;;16.74;48.39;99815.63;5114726;27;42091;-84
2023/02/20 09:38:46;;;;;;;4.67;2.70;;;;;;;16.95;48.43;99837.28;5114432;27;38786;-82
2023/02/20 09:41:44;;;;;;;6.10;2.63;;;;;;;17.78;47.29;99851.63;5131598;27;43157;-85
2023/02/20 09:47:42;;;;;;;4.67;2.47;;;;;;;18.34;46.34;99859.75;5115617;27;41304;-85
2023/02/20 09:50:18;;;;;;;4.17;2.50;;;;;;;17.98;46.58;99825.09;5135134;27;40020;-86
2023/02/20 09:52:56;;;;;;;5.83;2.70;;;;;;;17.94;46.91;99862.00;5152239;27;41475;-83
2023/02/20 09:55:34;;;;;;;4.93;2.77;;;;;;;17.80;47.63;99827.38;5134447;27;43842;-83
2023/02/20 09:58:05;;;;;;;4.27;2.57;;;;;;;18.45;46.85;99837.44;5152483;27;42544;-83
2023/02/20 10:00:53;;;;;;;3.77;2.70;;;;;;;20.03;43.02;99835.06;5121023;27;39958;-86
2023/02/20 10:04:05;;;;;;;5.30;2.57;;;;;;;21.61;40.87;99842.47;5138192;27;43245;-83
2023/02/20 10:06:34;;;;;;;6.03;3.00;;;;;;;22.46;37.88;99890.22;5131686;27;43457;-82
2023/02/20 10:09:05;;;;;;;6.13;4.00;;;;;;;22.73;38.27;99887.56;5117899;27;42084;-83
2023/02/20 10:11:48;;;;;;;5.87;3.30;;;;;;;23.07;38.34;99879.75;5100318;27;38721;-84
2023/02/20 10:15:01;;;;;;;5.27;2.60;;;;;;;22.68;37.42;99856.59;5100095;27;41002;-86
2023/02/20 10:17:52;;;;;;;6.73;3.07;;;;;;;22.14;37.96;99868.97;5097413;27;43154;-86
2023/02/20 10:20:40;;;;;;;4.67;3.00;;;;;;;21.40;38.77;99830.94;5138520;27;42157;-85
2023/02/20 10:26:05;;;;;;;5.17;3.30;;;;;;;20.83;40.05;99828.97;5119873;27;42374;-82
2023/02/20 10:29:13;;;;;;;5.30;3.00;;;;;;;21.27;39.69;99846.53;5137833;27;42904;-83
2023/02/20 10:31:49;;;;;;;5.13;3.30;;;;;;;21.81;38.53;99849.53;5138176;27;41285;-83
2023/02/20 10:34:42;;;;;;;4.73;2.97;;;;;;;21.68;38.71;99840.88;5120814;27;38950;-83
2023/02/20 10:37:16;;;;;;;5.70;3.37;;;;;;;21.60;38.31;99827.28;5137649;27;41065;-83
2023/02/20 10:40:08;;;;;;;6.67;3.63;;;;;;;21.93;38.15;99849.38;5120507;27;42038;-83
2023/02/20 10:43:02;;;;;;;5.23;3.60;;;;;;;22.24;37.54;99798.81;5120036;27;41356;-82
2023/02/20 10:45:38;;;;;;;4.87;3.40;;;;;;;23.13;36.63;99835.06;5120524;27;41403;-84
2023/02/20 10:48:46;;;;;;;6.47;3.30;;;;;;;23.86;35.72;99812.28;5137386;27;41734;-85
2023/02/20 10:52:13;;;;;;;6.67;3.03;;;;;;;24.93;33.75;99809.25;5137451;27;41562;-86
2023/02/20 10:55:24;;;;;;;4.80;3.17;;;;;;;24.73;34.11;99808.59;5098845;28;42505;-83
2023/02/20 10:58:17;;;;;;;5.03;3.00;;;;;;;24.54;33.57;99844.94;5096264;28;39036;-83
2023/02/20 11:07:04;;;;;;;5.13;2.80;;;;;;;23.19;34.46;99812.84;5114681;27;40889;-84
2023/02/20 11:10:00;;;;;;;6.50;3.27;;;;;;;22.89;34.70;99806.75;5099424;27;39253;-84
2023/02/20 11:12:49;;;;;;;5.30;2.50;;;;;;;22.78;34.73;99787.22;5098949;27;40961;-85
2023/02/20 11:15:39;;;;;;;4.40;2.60;;;;;;;22.80;34.45;99772.56;5113006;27;41900;-83
2023/02/20 11:21:53;;;;;;;4.13;2.90;;;;;;;25.59;31.13;99770.38;5099270;27;40500;-83
2023/02/20 11:39:28;;;;;;;2.37;2.10;;;;;;;29.79;27.37;99730.75;5152621;27;42194;-82
2023/02/20 11:42:13;;;;;;;3.15;2.33;;;;;;;30.21;25.10;99763.41;5119848;27;43351;-82
2023/02/20 11:44:42;;;;;;;4.72;2.33;;;;;;;31.45;23.90;99741.44;5136091;27;42103;-81
2023/02/20 11:50:13;;;;;;;2.55;2.08;;;;;;;33.00;21.63;99741.63;5096790;27;41848;-81
2023/02/20 11:53:17;;;;;;;4.60;2.22;;;;;;;33.85;21.48;99743.81;5099498;27;41858;-84
2023/02/20 11:56:15;;;;;;;3.97;1.90;;;;;;;35.28;20.47;99755.31;5098040;27;43955;-83
2023/02/20 12:02:12;;;;;;;5.88;2.65;;;;;;;37.08;18.65;99738.06;5133886;27;42967;-82
2023/02/20 12:05:41;;;;;;;3.92;2.03;;;;;;;36.61;18.04;99732.66;5116394;27;44430;-83
2023/02/20 12:09:01;;;;;;;2.92;2.03;;;;;;;36.47;17.93;99731.28;5118580;27;41474;-84
2023/02/20 12:11:37;;;;;;;3.70;1.88;;;;;;;36.04;17.71;99679.22;5135517;27;39907;-83
2023/02/20 12:14:15;;;;;;;3.42;1.90;;;;;;;35.95;18.08;99695.31;5095917;27;40426;-86
2023/02/20 12:17:11;;;;;;;4.28;2.63;;;;;;;36.36;17.87;99707.28;5098034;27;42272;-85
2023/02/20 12:20:08;;;;;;;4.60;2.15;;;;;;;36.64;17.22;99718.38;5097337;27;41637;-87
2023/02/20 12:22:59;;;;;;;2.88;1.98;;;;;;;37.21;16.95;99693.59;5113903;27;39006;-84
2023/02/20 12:25:33;;;;;;;4.22;1.98;;;;;;;38.09;16.86;99701.13;5098178;27;41151;-85
2023/02/20 12:28:14;;;;;;;3.53;1.70;;;;;;;38.59;16.44;99700.16;5099005;27;43655;-83
2023/02/20 12:30:56;;;;;;;3.65;1.80;;;;;;;39.07;15.90;99695.78;5115397;27;42596;-83
2023/02/20 12:36:48;;;;;;;5.18;2.33;;;;;;;39.27;15.58;99676.56;5115609;27;42471;-83
2023/02/20 12:39:32;;;;;;;3.35;1.88;;;;;;;39.01;15.01;99666.31;5098755;27;41674;-88
2023/02/20 12:42:53;;;;;;;3.72;1.85;;;;;;;38.87;15.15;99688.03;5132902;27;42475;-83
2023/02/20 12:45:48;;;;;;;2.45;1.60;;;;;;;38.77;15.54;99663.84;5132322;27;40038;-87
2023/02/20 12:48:45;;;;;;;4.00;1.95;;;;;;;39.05;15.43;99665.56;5100396;27;42365;-84
2023/02/20 12:51:44;;;;;;;5.18;2.00;;;;;;;39.32;15.65;99659.16;5107819;27;42325;-83
2023/02/20 12:54:38;;;;;;;3.25;1.83;;;;;;;39.18;15.04;99647.66;5107474;27;41519;-82
2023/02/20 12:57:33;;;;;;;2.67;1.60;;;;;;;38.89;15.73;99629.63;5106876;27;41171;-82
2023/02/20 13:03:19;;;;;;;2.83;1.80;;;;;;;37.25;15.97;99622.91;5130651;27;42282;-83
2023/02/20 13:14:18;;;;;;;2.53;2.07;;;;;;;32.06;19.07;99608.63;5152389;27;42306;-85
2023/02/20 13:17:01;;;;;;;3.43;2.00;;;;;;;31.73;19.65;99599.69;5058748;28;41711;-83
2023/02/20 13:19:36;;;;;;;3.57;2.00;;;;;;;31.73;19.92;99589.56;5094239;28;41572;-86
2023/02/20 13:22:05;;;;;;;3.53;2.00;;;;;;;31.64;19.89;99585.38;5077705;28;40217;-84
2023/02/20 13:24:36;;;;;;;4.43;1.97;;;;;;;32.21;20.08;99564.53;5087969;27;41693;-83
2023/02/20 13:30:00;;;;;;;4.97;2.23;;;;;;;32.10;19.79;99574.25;5117738;27;42355;-84
2023/02/20 13:32:31;;;;;;;5.97;2.43;;;;;;;30.96;20.10;99579.25;5118230;27;39941;-84
2023/02/20 13:35:34;;;;;;;4.27;2.10;;;;;;;29.25;21.77;99556.63;5137385;27;40573;-83
2023/02/20 13:38:10;;;;;;;4.50;2.13;;;;;;;27.56;23.79;99542.63;5119300;27;41192;-85
2023/02/20 13:41:26;;;;;;;3.27;1.63;;;;;;;26.48;24.67;99528.47;5120902;27;41252;-86
2023/02/20 13:43:54;;;;;;;3.87;2.20;;;;;;;25.30;25.79;99505.97;5122104;27;38721;-82
2023/02/20 13:46:29;;;;;;;3.30;1.97;;;;;;;24.66;26.61;99513.16;5121267;27;40942;-83
2023/02/20 13:49:12;;;;;;;4.57;2.27;;;;;;;25.02;26.84;99501.97;5122279;27;42377;-83
2023/02/20 13:51:39;;;;;;;4.50;2.07;;;;;;;25.50;25.50;99486.56;5120910;27;42900;-83
2023/02/20 13:54:38;;;;;;;4.17;2.13;;;;;;;26.40;24.93;99506.81;5138792;27;38827;-87
2023/02/20 13:57:17;;;;;;;4.33;1.80;;;;;;;27.12;24.10;99507.19;5095658;28;41048;-85
2023/02/20 14:02:41;;;;;;;4.63;2.20;;;;;;;28.19;23.24;99471.16;5122521;27;41322;-83
2023/02/20 14:05:21;;;;;;;4.53;2.30;;;;;;;28.50;22.95;99464.53;5117628;27;41051;-84
2023/02/20 14:08:04;;;;;;;3.63;2.20;;;;;;;28.83;22.85;99462.13;5099781;27;42036;-83
2023/02/20 14:10:51;;;;;;;4.70;2.50;;;;;;;28.93;22.67;99449.00;5100496;27;41732;-82
2023/02/20 14:13:39;;;;;;;4.27;2.20;;;;;;;29.09;22.38;99445.09;5135560;27;41155;-83
2023/02/20 14:16:27;;;;;;;4.70;1.97;;;;;;;29.44;22.56;99459.59;5121573;27;38828;-83
2023/02/20 14:19:09;;;;;;;3.47;2.00;;;;;;;29.65;22.38;99446.69;5137943;27;41822;-83
2023/02/20 14:21:56;;;;;;;3.43;2.10;;;;;;;29.66;22.57;99453.00;5120916;27;42102;-83
2023/02/20 14:24:27;;;;;;;3.33;1.90;;;;;;;29.69;22.88;99440.78;5137844;27;41103;-82
2023/02/20 14:26:56;;;;;;;3.80;2.10;;;;;;;29.72;22.70;99424.00;5120830;27;39387;-82
2023/02/20 14:29:26;;;;;;;3.60;2.43;;;;;;;29.69;22.38;99435.34;5120951;27;40681;-82
2023/02/20 14:31:55;;;;;;;3.90;2.10;;;;;;;29.29;22.82;99399.69;5120155;27;43322;-83
2023/02/20 14:34:33;;;;;;;4.27;2.27;;;;;;;29.00;22.68;99399.94;5120514;27;42386;-82
2023/02/20 14:37:13;;;;;;;3.93;2.50;;;;;;;28.61;22.94;99425.84;5120834;27;39197;-83
2023/02/20 14:39:59;;;;;;;3.57;2.03;;;;;;;27.96;23.29;99394.22;5120632;27;41076;-83
2023/02/20 14:42:27;;;;;;;5.57;2.40;;;;;;;26.99;23.99;99395.53;5120840;27;42925;-83
2023/02/20 14:45:31;;;;;;;4.43;2.10;;;;;;;25.34;25.49;99366.31;5120058;27;41777;-85
2023/02/20 14:48:01;;;;;;;4.00;2.37;;;;;;;24.27;27.21;99390.28;5120636;27;38590;-82
2023/02/20 14:50:37;;;;;;;5.07;2.30;;;;;;;23.02;28.86;99344.38;5120553;27;42553;-83
2023/02/20 14:53:12;;;;;;;5.47;2.63;;;;;;;22.30;30.29;99351.06;5136896;27;43952;-81
2023/02/20 14:55:40;;;;;;;5.77;1.80;;;;;;;21.66;31.38;99341.41;5120802;27;41121;-82
2023/02/20 14:58:08;;;;;;;4.87;2.00;;;;;;;20.95;32.20;99318.91;5137427;27;38960;-82
2023/02/20 15:00:38;;;;;;;3.90;2.20;;;;;;;20.41;33.32;99318.72;5137609;27;42262;-84
2023/02/20 15:06:03;;;;;;;3.63;1.80;;;;;;;19.50;34.87;99340.75;5119982;27;41260;-83
2023/02/20 15:08:34;;;;;;;6.30;3.73;;;;;;;19.12;35.82;99329.94;5151990;27;40009;-81
2023/02/20 15:11:09;;;;;;;4.13;2.13;;;;;;;18.83;36.33;99313.75;5120223;27;41017;-84
2023/02/20 15:13:44;;;;;;;5.47;2.83;;;;;;;18.32;37.02;99277.09;5119142;27;41771;-82
2023/02/20 15:16:16;;;;;;;3.43;2.33;;;;;;;18.10;37.65;99286.16;5119742;27;42685;-82
2023/02/20 15:18:47;;;;;;;3.83;2.20;;;;;;;17.94;38.09;99305.38;5120324;27;38970;-84
2023/02/20 15:21:34;;;;;;;2.43;2.00;;;;;;;17.73;39.08;99295.66;5119941;27;41159;-82
2023/02/20 15:24:14;;;;;;;7.43;2.60;;;;;;;17.49;39.55;99277.13;5119917;27;41708;-81
2023/02/20 15:26:42;;;;;;;4.60;2.50;;;;;;;16.99;39.79;99227.81;5119994;27;42659;-82
2023/02/20 15:29:19;;;;;;;3.27;2.40;;;;;;;17.22;40.15;99285.63;5120495;27;38989;-82
2023/02/20 15:31:53;;;;;;;4.37;2.20;;;;;;;16.95;40.55;99271.84;5119410;27;41522;-81
2023/02/20 15:34:23;;;;;;;3.70;2.27;;;;;;;16.87;41.07;99284.03;5120015;27;42602;-82
2023/02/20 15:36:53;;;;;;;5.47;2.40;;;;;;;16.72;41.55;99303.16;5136902;27;42408;-83
2023/02/20 15:39:21;;;;;;;4.30;2.20;;;;;;;16.61;41.69;99300.44;5119641;27;39157;-81
2023/02/20 15:41:49;;;;;;;5.07;2.30;;;;;;;16.41;42.49;99272.66;5119543;27;40694;-82
2023/02/20 15:44:17;;;;;;;6.30;2.80;;;;;;;16.35;42.42;99283.81;5119825;27;41556;-81
2023/02/20 15:46:44;;;;;;;4.80;2.27;;;;;;;16.28;43.25;99279.94;5136285;27;41778;-82
2023/02/20 15:49:12;;;;;;;4.07;2.10;;;;;;;16.16;43.02;99284.44;5120452;27;40805;-81
2023/02/20 15:51:42;;;;;;;5.17;2.57;;;;;;;16.04;43.55;99280.03;5120202;27;40817;-81
2023/02/20 15:54:17;;;;;;;4.83;2.60;;;;;;;15.89;44.49;99279.41;5119417;27;43432;-81
2023/02/20 15:56:46;;;;;;;5.27;2.70;;;;;;;15.71;44.71;99256.78;5132825;27;42872;-81
2023/02/20 15:59:15;;;;;;;5.93;2.87;;;;;;;15.64;44.78;99267.09;5136547;27;39994;-82
2023/02/20 16:01:43;;;;;;;6.03;2.50;;;;;;;15.44;45.23;99254.41;5119396;27;40339;-80
2023/02/20 16:04:14;;;;;;;4.50;2.47;;;;;;;15.49;45.56;99286.06;5119295;27;42398;-81
2023/02/20 16:06:44;;;;;;;3.03;2.30;;;;;;;15.32;45.35;99256.19;5119148;27;41219;-82
2023/02/20 16:09:13;;;;;;;4.97;2.10;;;;;;;15.06;45.42;99233.28;5154946;27;39941;-81
2023/02/20 16:11:44;;;;;;;5.40;2.43;;;;;;;15.24;45.99;99279.91;5136265;27;41891;-81
2023/02/20 16:14:14;;;;;;;3.10;2.03;;;;;;;15.04;45.71;99261.88;5136392;27;43070;-81
2023/02/20 16:16:44;;;;;;;6.67;2.80;;;;;;;14.94;46.24;99255.53;5119229;27;41642;-81
2023/02/20 16:19:15;;;;;;;3.97;2.07;;;;;;;14.92;46.44;99273.44;5136779;27;38848;-81
2023/02/20 16:21:42;;;;;;;3.90;2.33;;;;;;;14.75;46.89;99266.69;5136386;27;40439;-81
2023/02/20 16:24:11;;;;;;;4.40;2.10;;;;;;;14.76;46.24;99284.38;5136527;27;43273;-82
2023/02/20 16:26:43;;;;;;;3.57;1.97;;;;;;;14.57;46.43;99268.88;5119322;27;42206;-81
2023/02/20 16:29:16;;;;;;;3.40;2.07;;;;;;;14.58;47.08;99272.41;5133911;27;40719;-81
2023/02/20 16:32:17;;;;;;;4.27;2.20;;;;;;;14.48;46.70;99280.19;5136393;27;40800;-82
2023/02/20 16:34:45;;;;;;;3.87;2.27;;;;;;;14.38;46.96;99273.78;5136061;27;42868;-80
2023/02/20 16:37:14;;;;;;;5.10;2.40;;;;;;;14.27;47.38;99269.22;5136305;27;41123;-80
2023/02/20 16:39:41;;;;;;;6.00;2.23;;;;;;;14.19;47.01;99284.06;5154794;27;39910;-81
2023/02/20 16:42:33;;;;;;;3.83;2.10;;;;;;;14.09;47.35;99288.34;5136307;27;40757;-81
2023/02/20 16:45:04;;;;;;;4.33;2.07;;;;;;;13.95;47.11;99286.63;5136009;27;41813;-81
2023/02/20 16:47:32;;;;;;;5.10;2.10;;;;;;;13.84;47.07;99289.19;5151712;27;41827;-81
2023/02/20 16:50:05;;;;;;;7.73;2.63;;;;;;;13.57;47.39;99267.97;5119026;27;39876;-80
2023/02/20 16:52:35;;;;;;;7.03;2.20;;;;;;;13.59;48.22;99287.34;5136710;27;40673;-80
2023/02/20 16:55:04;;;;;;;3.90;2.37;;;;;;;13.49;48.73;99288.91;5154194;27;42679;-81
2023/02/20 16:57:34;;;;;;;5.10;2.53;;;;;;;13.40;48.73;99290.38;5136293;27;41015;-81
2023/02/20 17:00:03;;;;;;;4.53;2.70;;;;;;;13.19;49.50;99279.38;5136108;27;38759;-81
2023/02/20 17:02:32;;;;;;;2.93;2.07;;;;;;;13.19;49.53;99282.03;5153612;27;41829;-81
2023/02/20 17:05:01;;;;;;;4.97;2.33;;;;;;;13.06;50.04;99277.59;5135679;27;42710;-80
2023/02/20 17:07:29;;;;;;;5.27;2.40;;;;;;;13.09;50.32;99291.53;5135827;27;41250;-80
2023/02/20 17:09:57;;;;;;;4.33;2.67;;;;;;;13.03;50.59;99281.28;5156338;27;40054;-81
2023/02/20 17:12:26;;;;;;;4.07;2.50;;;;;;;12.86;51.18;99270.91;5121800;27;40756;-81
2023/02/20 17:14:56;;;;;;;4.70;2.60;;;;;;;12.81;51.44;99270.38;5157673;27;42637;-82
2023/02/20 17:17:24;;;;;;;5.03;2.13;;;;;;;12.82;51.01;99280.91;5157471;27;42139;-80
2023/02/20 17:19:54;;;;;;;4.33;2.73;;;;;;;12.76;51.11;99288.41;5139417;27;38801;-81
2023/02/20 17:22:23;;;;;;;5.43;2.30;;;;;;;12.69;50.98;99303.91;5122057;27;42056;-80
2023/02/20 17:24:51;;;;;;;5.83;2.77;;;;;;;12.61;51.35;99306.19;5121477;27;43180;-81
2023/02/20 17:27:20;;;;;;;5.20;2.83;;;;;;;12.52;51.41;99307.63;5139615;27;41404;-80
2023/02/20 17:29:48;;;;;;;5.87;2.77;;;;;;;12.44;51.59;99303.75;5157587;27;40850;-81
2023/02/20 17:32:18;;;;;;;5.60;2.50;;;;;;;12.21;51.24;99286.59;5157724;27;42429;-80
2023/02/20 17:34:46;;;;;;;5.57;3.50;;;;;;;12.15;51.38;99302.91;5138641;27;43506;-81
2023/02/20 17:37:14;;;;;;;5.47;2.67;;;;;;;11.88;51.42;99263.84;5157430;27;42378;-80
2023/02/20 17:39:42;;;;;;;3.97;2.40;;;;;;;12.07;51.66;99311.34;5138765;27;39047;-80
2023/02/20 17:42:11;;;;;;;3.23;2.43;;;;;;;11.98;51.82;99309.25;5139377;27;42439;-80
2023/02/20 17:44:39;;;;;;;7.40;2.97;;;;;;;11.87;52.26;99309.03;5138696;27;41900;-80
2023/02/20 17:47:09;;;;;;;4.50;2.57;;;;;;;11.81;52.63;99304.97;5138793;27;41521;-80
2023/02/20 17:49:39;;;;;;;3.93;2.50;;;;;;;11.75;52.67;99313.28;5139029;27;40224;-80
2023/02/20 17:52:06;;;;;;;6.60;3.30;;;;;;;11.67;52.47;99302.25;5138819;27;41009;-80
2023/02/20 17:54:34;;;;;;;5.27;2.67;;;;;;;11.60;52.43;99306.22;5157185;27;43748;-81
2023/02/20 17:57:02;;;;;;;6.00;2.70;;;;;;;11.47;52.87;99286.69;5157596;27;41941;-81
2023/02/20 17:59:30;;;;;;;6.43;2.83;;;;;;;11.47;52.71;99297.28;5121571;27;40421;-80
2023/02/20 18:01:58;;;;;;;3.40;2.33;;;;;;;11.41;53.10;99297.63;5138842;27;42189;-80
2023/02/20 18:04:25;;;;;;;5.80;2.57;;;;;;;11.33;53.45;99297.25;5155924;27;42985;-81
2023/02/20 18:06:55;;;;;;;5.53;2.73;;;;;;;11.25;53.68;99304.81;5138516;27;41400;-79
2023/02/20 18:09:23;;;;;;;4.00;2.33;;;;;;;11.22;54.22;99305.81;5138252;27;39189;-81
2023/02/20 18:11:51;;;;;;;4.53;2.30;;;;;;;11.14;54.10;99297.44;5156231;27;41998;-81
2023/02/20 18:14:20;;;;;;;2.40;2.20;;;;;;;11.08;54.03;99298.66;5138566;27;44274;-80
2023/02/20 18:16:48;;;;;;;3.23;2.30;;;;;;;11.04;54.21;99307.72;5155677;27;42469;-80
2023/02/20 18:19:16;;;;;;;3.90;2.27;;;;;;;10.94;54.47;99295.94;5138312;27;39052;-80
2023/02/20 18:21:48;;;;;;;3.03;1.90;;;;;;;10.95;55.32;99297.66;5156411;27;42787;-80
2023/02/20 18:24:20;;;;;;;3.73;2.17;;;;;;;10.93;55.96;99296.88;5121034;27;41888;-81
2023/02/20 18:26:47;;;;;;;3.30;2.23;;;;;;;10.90;55.40;99294.41;5138595;27;41484;-80
2023/02/20 18:29:15;;;;;;;3.37;2.17;;;;;;;10.77;55.23;99291.59;5120650;27;39801;-80
2023/02/20 18:31:43;;;;;;;6.33;2.50;;;;;;;10.81;55.77;99300.22;5120679;27;40719;-80
2023/02/20 18:34:11;;;;;;;3.73;2.20;;;;;;;10.75;55.71;99300.59;5137863;27;42389;-79
2023/02/20 18:36:39;;;;;;;3.27;2.40;;;;;;;10.66;56.01;99291.34;5137734;27;42072;-80
2023/02/20 18:39:08;;;;;;;3.30;2.23;;;;;;;10.62;55.96;99297.78;5137744;27;39935;-82
2023/02/20 18:41:38;;;;;;;5.17;2.20;;;;;;;10.52;57.16;99288.59;5120903;27;40634;-80
2023/02/20 18:44:06;;;;;;;3.77;2.27;;;;;;;10.42;56.53;99284.75;5120441;27;43074;-79
2023/02/20 18:46:36;;;;;;;5.27;2.70;;;;;;;10.42;56.50;99300.66;5120381;27;41306;-80
2023/02/20 18:49:04;;;;;;;3.97;2.50;;;;;;;10.33;56.66;99283.47;5155124;27;40354;-81
2023/02/20 18:51:34;;;;;;;6.33;3.00;;;;;;;10.33;56.85;99299.38;5120642;27;40872;-80
2023/02/20 18:54:02;;;;;;;5.30;2.90;;;;;;;10.21;57.52;99278.84;5120237;27;44039;-81
2023/02/20 18:56:30;;;;;;;4.17;2.93;;;;;;;10.24;57.32;99288.44;5137309;27;42154;-80
2023/02/20 18:59:02;;;;;;;5.13;2.90;;;;;;;10.21;57.19;99285.94;5154971;27;40638;-80
2023/02/20 19:01:32;;;;;;;5.43;2.80;;;;;;;10.07;57.42;99276.06;5134559;27;42120;-79
2023/02/20 19:04:01;;;;;;;6.77;2.87;;;;;;;10.05;57.74;99272.63;5137336;27;42615;-80
2023/02/20 19:06:33;;;;;;;4.87;2.87;;;;;;;10.07;57.72;99281.34;5137251;27;42217;-80
2023/02/20 19:09:01;;;;;;;6.47;3.10;;;;;;;9.99;57.73;99276.47;5119937;27;41239;-80
2023/02/20 19:11:30;;;;;;;5.23;2.83;;;;;;;9.85;58.56;99270.22;5119988;27;41262;-81
2023/02/20 19:14:00;;;;;;;6.23;3.67;;;;;;;9.91;58.86;99280.44;5137204;27;41581;-80
2023/02/20 19:16:28;;;;;;;6.43;2.70;;;;;;;9.88;58.84;99289.44;5137194;27;41215;-81
2023/02/20 19:18:56;;;;;;;8.57;3.00;;;;;;;9.74;59.26;99268.13;5137308;27;40891;-81
2023/02/20 19:21:24;;;;;;;4.17;2.80;;;;;;;9.81;59.59;99281.88;5137686;27;41892;-80
2023/02/20 19:23:52;;;;;;;6.57;2.83;;;;;;;9.79;60.52;99281.09;5137128;27;41455;-81
2023/02/20 19:26:19;;;;;;;4.13;2.60;;;;;;;9.80;60.50;99288.09;5137190;27;42542;-81
2023/02/20 19:28:47;;;;;;;7.23;2.93;;;;;;;9.78;60.81;99282.03;5136922;27;40255;-81
2023/02/20 19:31:18;;;;;;;4.93;2.77;;;;;;;9.77;60.81;99273.25;5136917;27;42527;-81
2023/02/20 19:33:48;;;;;;;3.20;2.73;;;;;;;9.82;60.84;99291.53;5119287;27;42188;-81
2023/02/20 19:36:16;;;;;;;5.43;2.73;;;;;;;9.75;60.20;99285.72;5119812;27;41128;-80
2023/02/20 19:38:44;;;;;;;5.10;2.57;;;;;;;9.69;60.22;99278.94;5136968;27;39014;-81
2023/02/20 19:41:13;;;;;;;5.77;3.03;;;;;;;9.64;60.38;99286.25;5120265;27;40259;-82
2023/02/20 19:43:41;;;;;;;4.10;2.63;;;;;;;9.59;59.98;99284.78;5136441;27;41591;-81
2023/02/20 19:46:14;;;;;;;5.30;2.80;;;;;;;9.52;60.51;99286.88;5137188;27;42938;-80
2023/02/20 19:48:44;;;;;;;4.10;2.73;;;;;;;9.59;60.76;99301.50;5151928;27;39846;-81
2023/02/20 19:51:12;;;;;;;4.80;2.70;;;;;;;9.36;60.69;99268.31;5136917;27;42534;-81
2023/02/20 19:53:40;;;;;;;9.37;3.57;;;;;;;9.46;61.12;99292.50;5154913;27;42716;-81
2023/02/20 19:56:09;;;;;;;3.90;2.57;;;;;;;9.54;60.85;99313.25;5136698;27;41926;-81
2023/02/20 19:58:39;;;;;;;5.73;2.63;;;;;;;9.43;61.24;99290.00;5136956;27;40273;-80
2023/02/20 20:01:06;;;;;;;4.13;2.40;;;;;;;9.49;62.29;99288.84;5136824;27;43268;-80
2023/02/20 20:03:34;;;;;;;5.10;2.57;;;;;;;9.46;62.92;99281.91;5136720;27;41597;-81
2023/02/20 20:06:03;;;;;;;4.40;3.37;;;;;;;9.35;63.45;99271.03;5136656;27;42823;-80
2023/02/20 20:08:31;;;;;;;6.13;3.17;;;;;;;9.33;63.89;99262.34;5151142;27;40270;-80
2023/02/20 20:10:59;;;;;;;3.60;2.60;;;;;;;9.39;64.08;99267.31;5135420;27;41025;-79
2023/02/20 20:13:27;;;;;;;5.97;2.57;;;;;;;9.45;63.71;99288.13;5152087;27;41996;-81
2023/02/20 20:15:55;;;;;;;5.63;3.00;;;;;;;9.43;64.80;99284.72;5152945;27;41136;-82
2023/02/20 20:18:23;;;;;;;10.37;3.60;;;;;;;9.34;65.18;99254.31;5130021;27;38831;-80
2023/02/20 20:20:51;;;;;;;4.97;2.93;;;;;;;9.42;65.34;99261.84;5119348;27;40860;-80
2023/02/20 20:23:20;;;;;;;4.70;2.97;;;;;;;9.53;65.55;99274.50;5154854;27;43034;-81
2023/02/20 20:25:48;;;;;;;6.50;2.73;;;;;;;9.54;65.29;99276.22;5118590;27;40988;-80
2023/02/20 20:28:16;;;;;;;5.47;2.50;;;;;;;9.46;65.48;99262.56;5119231;27;39872;-80
2023/02/20 20:30:44;;;;;;;4.07;2.37;;;;;;;9.55;65.06;99288.50;5136273;27;42220;-80
2023/02/20 20:33:12;;;;;;;5.07;2.87;;;;;;;9.51;64.14;99284.34;5136105;27;43502;-79
2023/02/20 20:35:40;;;;;;;5.03;2.67;;;;;;;9.40;64.34;99279.56;5153096;27;43183;-80
2023/02/20 20:38:08;;;;;;;5.83;2.90;;;;;;;9.37;65.05;99274.47;5136295;27;39626;-81
2023/02/20 20:40:37;;;;;;;7.67;3.13;;;;;;;9.30;65.70;99263.34;5135721;27;41985;-81
2023/02/20 20:43:06;;;;;;;4.07;3.23;;;;;;;9.39;65.67;99285.81;5135803;27;42691;-80
2023/02/20 20:45:34;;;;;;;7.97;3.50;;;;;;;9.32;66.02;99266.75;5135323;27;42114;-80
2023/02/20 20:48:02;;;;;;;4.97;2.87;;;;;;;9.38;66.42;99273.53;5136118;27;41252;-81
2023/02/20 20:50:30;;;;;;;5.97;2.77;;;;;;;9.41;67.00;99276.00;5135501;27;40728;-81
2023/02/20 20:52:59;;;;;;;5.83;2.97;;;;;;;9.33;66.14;99264.97;5135689;27;44107;-80
2023/02/20 20:55:27;;;;;;;6.33;3.20;;;;;;;9.39;66.98;99272.59;5154074;27;42589;-81
2023/02/20 20:57:56;;;;;;;4.07;2.67;;;;;;;9.39;66.50;99277.91;5154367;27;40719;-79
2023/02/20 21:00:28;;;;;;;6.17;2.97;;;;;;;9.38;66.04;99286.75;5135571;27;40707;-81
2023/02/20 21:02:56;;;;;;;4.80;2.90;;;;;;;9.21;66.61;99258.53;5118425;27;42423;-81
2023/02/20 21:05:27;;;;;;;9.37;3.23;;;;;;;9.35;66.19;99279.81;5118358;27;40898;-81
2023/02/20 21:07:55;;;;;;;4.20;2.73;;;;;;;9.20;66.31;99255.94;5118453;27;40002;-81
2023/02/20 21:10:24;;;;;;;6.43;3.00;;;;;;;9.29;66.47;99271.34;5135466;27;40920;-80
2023/02/20 21:12:52;;;;;;;7.37;3.47;;;;;;;9.25;67.18;99275.09;5153417;27;43795;-80
2023/02/20 21:15:22;;;;;;;5.33;2.87;;;;;;;8.90;66.73;99211.63;5135272;27;42194;-81
2023/02/20 21:17:50;;;;;;;5.67;3.17;;;;;;;9.23;66.67;99272.53;5135452;27;40013;-81
2023/02/20 21:20:20;;;;;;;5.13;2.90;;;;;;;9.12;67.29;99260.78;5153706;27;41537;-81
2023/02/20 21:22:49;;;;;;;6.67;2.50;;;;;;;9.21;67.47;99273.53;5118220;27;42922;-81
2023/02/20 21:25:17;;;;;;;10.80;3.33;;;;;;;9.09;67.39;99256.50;5134969;27;42247;-81
2023/02/20 21:27:45;;;;;;;5.13;2.63;;;;;;;9.19;67.18;99276.25;5135653;27;40127;-80
2023/02/20 21:30:14;;;;;;;4.43;3.27;;;;;;;9.14;67.75;99261.56;5152547;27;41998;-81
2023/02/20 21:32:43;;;;;;;5.50;2.90;;;;;;;9.19;67.61;99278.88;5153689;27;43473;-80
2023/02/20 21:35:13;;;;;;;6.67;2.47;;;;;;;9.10;67.61;99263.50;5134862;27;41147;-81
2023/02/20 21:37:40;;;;;;;4.27;2.40;;;;;;;9.17;67.95;99266.66;5153929;27;43286;-81
2023/02/20 21:40:09;;;;;;;3.70;2.63;;;;;;;9.09;68.01;99258.28;5117805;27;40939;-81
2023/02/20 21:45:23;;;;;;;4.03;3.10;;;;;;;9.13;68.86;99265.13;5118623;27;40887;-80
2023/02/20 21:47:52;;;;;;;4.33;2.57;;;;;;;9.00;69.02;99241.97;5118538;27;39229;-81
2023/02/20 21:50:20;;;;;;;4.43;2.37;;;;;;;9.15;68.44;99268.56;5134776;27;40835;-81
2023/02/20 21:52:48;;;;;;;8.50;3.10;;;;;;;9.11;68.13;99270.50;5118038;27;41658;-80
2023/02/20 21:55:18;;;;;;;5.87;2.77;;;;;;;8.86;68.60;99231.22;5135533;27;41894;-81
2023/02/20 21:57:46;;;;;;;5.43;2.90;;;;;;;9.02;68.43;99251.63;5138716;27;40363;-80
